Hauptseite
METAR-TAF:

METAR-TAF

Flughäfen :

Ouagadougou, Burkina Faso

Flughafen Ouagadougou

Breite: 12-21N, Länge: 001-31W, Höhe: 316 m

Beobachtung

Neuester Wetterbericht von vor 43 Minuten, um 14:00 UTC
Wind 7 kt aus Ost/Südost, variierte zwischen Ost/Nordost und Süd/Südost
Temperatur 36°C
Luftfeuchtigkeit 15%
Luftdruck 1011 hPa
Sichtweite: 3500 m
verbreitet Staub

METAR: DFFD 241400Z 12007KT 070V160 3500 DU NSC 36/05 Q1011 NOSIG

Zeit: 14:43 (14:43 UTC)

Prognose

Neuester Wetterbericht von vor 3 Stunden und 43 Minuten, um 11:00 UTC
Gültige Prognose vom 24 um 12 UTC bis 25 um 18 UTC
Wind 10 kt aus Ost
Sichtweite: 4000 m
verbreitet Staub
Übergehend zu
vom 24 um 16 UTC bis 24 um 18 UTC
Sichtweite: 2500 m
verbreitet Staub
Zeitweise
vom 25 um 06 UTC bis 25 um 10 UTC
Sichtweite: 1400 m
verbreitet Staub

TAF: DFFD 241100Z 2412/2518 10010KT 4000 DU NSC BECMG 2416/2418 2500 DU TEMPO 2506/2510 1400 DU

Wetterbeobachtungen und Prognosen von mehr als 4000 Flughäfen (METAR und TAF Bericht).

Die verfügbaren Stationen werden durch gelbe und rote Markierungen auf der Karte dargestellt.

Führen Sie die Maus auf sie, um den Namen der Station zu sehen.

Darauf klicken, um die Beobachtung von Wetterbeobachtungen und Prognosen zu sehen.

Um die Karte zu ändern : klicken Sie auf den grünen Tasten mit einem schwarzen Kreuz Zum Vergrößern, auf den grünen Button mit einem Gedankenstrich zu verkleinern, oder auf die grünen Pfeile für benachbarte Karten.


METAR-TAF: